Time;durP1;ratioP1;P1;durP2;ratioP2;P2;SDS_P1;SDS_P2;PMS_P1;PMS_P2;Temp;Humidity;BMP_temperature;BMP_pressure;BME280_temperature;BME280_humidity;BME280_pressure;Samples;Min_cycle;Max_cycle;Signal;HPM_P1;HPM_P2
2022/01/19 00:00:47;;;;;;;17.40;8.60;;;;;;;10.53;46.11;102985.13;4977652;28;20030;-62
2022/01/19 00:03:13;;;;;;;15.45;7.95;;;;;;;10.51;46.32;102989.69;4995351;28;20121;-62
2022/01/19 00:05:39;;;;;;;19.77;8.07;;;;;;;10.44;45.99;102991.81;4977871;28;20456;-62
2022/01/19 00:08:04;;;;;;;22.98;8.30;;;;;;;10.38;46.29;102996.63;4995351;28;20053;-62
2022/01/19 00:10:30;;;;;;;19.25;7.68;;;;;;;10.39;46.23;102995.66;4995089;28;20034;-62
2022/01/19 00:12:56;;;;;;;19.05;8.40;;;;;;;10.33;45.89;102996.81;4961681;28;20037;-62
2022/01/19 00:15:22;;;;;;;15.05;7.68;;;;;;;10.27;46.39;102997.09;4962016;28;20536;-62
2022/01/19 00:17:48;;;;;;;16.23;7.38;;;;;;;10.20;46.83;102989.44;4994967;28;20042;-62
2022/01/19 00:20:13;;;;;;;15.57;7.65;;;;;;;10.17;47.16;103000.31;4995141;28;20121;-62
2022/01/19 00:22:39;;;;;;;21.15;8.60;;;;;;;10.14;46.14;103006.69;4989149;28;20491;-62
2022/01/19 00:25:06;;;;;;;19.45;8.43;;;;;;;10.10;46.66;102982.78;4974425;28;20080;-62
2022/01/19 00:27:31;;;;;;;17.52;8.02;;;;;;;10.01;46.25;102951.97;4975587;28;20034;-62
2022/01/19 00:29:57;;;;;;;18.73;8.45;;;;;;;10.05;46.45;102941.97;4964460;28;20047;-62
2022/01/19 00:32:24;;;;;;;18.25;8.00;;;;;;;10.02;46.49;102926.06;4974215;28;20027;-62
2022/01/19 00:34:49;;;;;;;25.00;10.38;;;;;;;9.97;46.38;102917.38;4974000;28;20018;-62
2022/01/19 00:37:15;;;;;;;20.63;7.63;;;;;;;9.92;46.46;102905.06;4974043;28;20045;-62
2022/01/19 00:39:40;;;;;;;20.10;7.20;;;;;;;9.90;46.55;102888.22;4956680;28;20050;-62
2022/01/19 00:42:06;;;;;;;21.52;8.55;;;;;;;9.88;46.40;102889.25;4973903;28;20513;-62
2022/01/19 00:44:31;;;;;;;19.25;7.78;;;;;;;9.87;45.87;102904.44;4956793;28;20114;-62
2022/01/19 00:46:57;;;;;;;22.75;8.77;;;;;;;9.89;45.59;102909.69;4975531;28;20023;-62
2022/01/19 00:49:22;;;;;;;18.73;8.00;;;;;;;9.88;46.54;102919.53;4974826;28;20118;-62
2022/01/19 00:51:47;;;;;;;22.88;9.10;;;;;;;9.73;46.70;102893.53;4974386;28;20432;-62
2022/01/19 00:54:13;;;;;;;23.75;9.05;;;;;;;9.82;46.35;102909.16;4974055;28;20035;-62
2022/01/19 00:56:38;;;;;;;25.02;8.40;;;;;;;9.74;45.95;102913.97;4956882;28;20450;-62
2022/01/19 00:59:04;;;;;;;27.42;9.77;;;;;;;9.78;46.23;102928.94;4940872;28;20080;-62
2022/01/19 01:01:29;;;;;;;22.25;7.80;;;;;;;9.70;46.53;102925.78;4973867;28;20392;-62
2022/01/19 01:03:54;;;;;;;26.30;8.52;;;;;;;9.72;46.63;102929.22;4973982;28;20031;-62
2022/01/19 01:06:20;;;;;;;21.10;8.45;;;;;;;9.69;46.16;102928.50;4973675;28;20154;-62
2022/01/19 01:08:46;;;;;;;18.65;7.47;;;;;;;9.65;45.70;102917.09;4973768;28;20030;-62
2022/01/19 01:11:11;;;;;;;18.88;8.35;;;;;;;9.66;46.86;102917.97;4956801;28;20033;-62
2022/01/19 01:16:37;;;;;;;17.85;7.93;;;;;;;9.57;46.28;102897.88;4973614;28;20469;-62
2022/01/19 01:19:04;;;;;;;15.43;6.68;;;;;;;9.53;46.73;102896.25;4942633;28;20033;-61
2022/01/19 01:21:30;;;;;;;22.10;8.60;;;;;;;9.49;46.40;102891.13;4956618;28;20022;-61
2022/01/19 01:23:55;;;;;;;23.13;8.23;;;;;;;9.47;46.45;102893.88;4974373;28;20042;-62
2022/01/19 01:26:21;;;;;;;17.80;8.07;;;;;;;9.44;46.82;102875.28;4974005;28;20089;-62
2022/01/19 01:28:46;;;;;;;24.17;8.90;;;;;;;9.50;46.83;102884.81;4973434;28;20073;-62
2022/01/19 01:31:12;;;;;;;19.17;8.82;;;;;;;9.49;46.19;102873.25;4956686;28;20115;-62
2022/01/19 01:33:38;;;;;;;20.40;9.15;;;;;;;9.51;46.68;102879.44;4973528;28;20114;-63
2022/01/19 01:36:04;;;;;;;21.67;7.35;;;;;;;9.50;46.20;102858.09;4955890;28;20038;-62
2022/01/19 01:38:30;;;;;;;23.52;9.20;;;;;;;9.51;46.74;102866.06;4973224;28;20084;-61
2022/01/19 01:40:55;;;;;;;22.15;8.32;;;;;;;9.55;46.56;102862.28;4973209;28;20054;-62
2022/01/19 01:43:21;;;;;;;24.80;10.52;;;;;;;9.60;46.96;102867.44;4973410;28;20114;-62
2022/01/19 01:45:51;;;;;;;22.35;9.48;;;;;;;9.62;46.40;102862.84;4956572;28;20034;-61
2022/01/19 01:48:19;;;;;;;20.38;8.40;;;;;;;9.57;46.43;102851.50;4957012;28;20023;-62
2022/01/19 01:53:36;;;;;;;14.95;7.32;;;;;;;9.56;46.60;102856.00;4974179;28;20037;-61
2022/01/19 01:56:08;;;;;;;27.58;8.65;;;;;;;9.54;46.35;102855.22;4974350;28;20035;-62
2022/01/19 01:58:40;;;;;;;20.08;8.85;;;;;;;9.51;46.14;102860.69;4959523;28;20035;-62
2022/01/19 02:01:07;;;;;;;23.10;7.55;;;;;;;9.46;45.99;102857.38;4977555;28;20094;-62
2022/01/19 02:03:38;;;;;;;28.92;10.40;;;;;;;9.43;46.56;102840.59;4977472;28;20432;-62
2022/01/19 02:08:51;;;;;;;20.08;8.07;;;;;;;9.33;46.15;102821.44;4977826;28;20117;-62
2022/01/19 02:16:43;;;;;;;20.25;8.18;;;;;;;9.23;46.35;102790.72;4977371;28;20046;-62
2022/01/19 02:22:01;;;;;;;17.85;8.55;;;;;;;9.17;46.65;102780.31;4962709;28;20121;-61
2022/01/19 02:24:39;;;;;;;16.02;7.13;;;;;;;9.13;46.43;102786.72;4977271;28;20105;-62
2022/01/19 02:28:58;;;;;;;19.55;8.13;;;;;;;9.13;46.51;102776.03;4961637;28;20027;-62
2022/01/19 02:30:32;;;;;;;19.35;7.57;;;;;;;9.08;46.92;102773.59;4976581;28;20031;-62
2022/01/19 02:40:57;;;;;;;19.90;7.63;;;;;;;9.04;46.19;102752.44;4976752;28;20137;-62
2022/01/19 02:43:25;;;;;;;15.07;7.15;;;;;;;8.96;46.28;102733.22;4976911;28;20023;-62
2022/01/19 02:51:19;;;;;;;23.58;8.10;;;;;;;8.88;46.25;102704.16;4976680;28;20070;-62
2022/01/19 02:53:44;;;;;;;17.83;7.85;;;;;;;8.90;46.16;102713.00;4959307;28;20022;-62
2022/01/19 02:56:16;;;;;;;21.70;8.30;;;;;;;8.85;47.02;102711.50;4976585;28;20102;-62
2022/01/19 02:59:13;;;;;;;23.38;8.07;;;;;;;8.88;46.09;102722.88;4976674;28;20030;-62
2022/01/19 03:09:41;;;;;;;17.13;7.40;;;;;;;9.01;46.74;102693.78;4960179;28;20081;-62
2022/01/19 03:12:07;;;;;;;25.27;8.48;;;;;;;9.08;46.59;102689.84;4959299;28;20101;-62
2022/01/19 03:14:33;;;;;;;18.50;7.22;;;;;;;9.19;46.85;102693.75;4976178;28;20078;-62
2022/01/19 03:16:58;;;;;;;17.90;7.10;;;;;;;9.32;47.36;102702.06;4959135;28;20031;-62
2022/01/19 03:19:26;;;;;;;14.57;6.80;;;;;;;9.43;46.78;102712.22;4959026;28;20049;-62
2022/01/19 03:21:52;;;;;;;16.45;7.45;;;;;;;9.54;46.96;102694.69;4959431;28;20034;-62
2022/01/19 03:24:17;;;;;;;16.35;6.63;;;;;;;9.65;46.91;102703.06;4958735;28;20473;-62
2022/01/19 03:26:43;;;;;;;13.95;6.40;;;;;;;9.77;46.85;102690.88;4976025;28;20446;-62
2022/01/19 03:29:08;;;;;;;13.93;6.90;;;;;;;9.87;47.24;102676.06;4958724;28;20023;-61
2022/01/19 03:31:33;;;;;;;14.15;5.43;;;;;;;9.87;47.41;102663.56;4976007;28;20473;-61
2022/01/19 03:33:59;;;;;;;14.00;5.20;;;;;;;10.02;47.45;102663.69;4958757;28;20050;-62
2022/01/19 03:36:25;;;;;;;12.70;6.25;;;;;;;10.08;47.35;102674.09;4976180;28;20038;-62
2022/01/19 03:38:50;;;;;;;9.60;5.28;;;;;;;10.11;47.88;102665.88;4975586;28;20030;-62
2022/01/19 03:41:15;;;;;;;12.40;4.93;;;;;;;10.17;47.21;102673.63;4975835;28;20038;-62
2022/01/19 03:43:41;;;;;;;16.95;5.28;;;;;;;10.25;47.40;102679.41;4975791;28;20514;-62
2022/01/19 03:46:13;;;;;;;11.98;5.85;;;;;;;10.26;47.69;102665.97;4942335;28;20033;-62
2022/01/19 03:49:09;;;;;;;13.70;5.73;;;;;;;10.34;48.14;102666.41;4975655;28;20031;-62
2022/01/19 03:51:25;;;;;;;13.27;5.30;;;;;;;10.38;47.82;102665.31;4960977;28;20038;-61
2022/01/19 03:53:51;;;;;;;14.32;5.22;;;;;;;10.39;47.95;102668.84;4975739;28;20389;-62
2022/01/19 03:56:17;;;;;;;12.77;5.32;;;;;;;10.34;47.87;102650.34;4975583;28;20022;-61
2022/01/19 03:58:43;;;;;;;11.95;5.13;;;;;;;10.48;47.65;102669.22;4975563;28;20027;-62
2022/01/19 04:01:09;;;;;;;9.85;5.25;;;;;;;10.48;48.13;102652.28;4975434;28;20062;-62
2022/01/19 04:06:16;;;;;;;7.80;4.78;;;;;;;10.56;48.06;102644.69;4975392;28;20088;-62
2022/01/19 04:08:41;;;;;;;11.25;5.03;;;;;;;10.58;48.33;102647.28;4975344;28;20026;-61
2022/01/19 04:11:06;;;;;;;15.02;5.68;;;;;;;10.61;47.98;102637.25;4975417;28;20034;-61
2022/01/19 04:13:44;;;;;;;13.27;4.68;;;;;;;10.64;47.91;102636.19;4975174;28;20027;-62
2022/01/19 04:16:10;;;;;;;8.80;4.55;;;;;;;10.63;48.00;102630.00;4975268;28;20046;-62
2022/01/19 04:18:35;;;;;;;10.85;4.18;;;;;;;10.64;47.87;102626.34;4975187;28;20039;-64
2022/01/19 04:21:02;;;;;;;11.02;4.63;;;;;;;10.65;48.03;102632.59;4957752;28;20093;-62
2022/01/19 04:23:27;;;;;;;12.90;4.55;;;;;;;10.65;48.29;102627.22;4957570;28;20034;-62
2022/01/19 04:25:53;;;;;;;8.32;4.97;;;;;;;10.65;47.78;102633.47;4974974;28;20030;-62
2022/01/19 04:28:18;;;;;;;8.27;4.63;;;;;;;10.67;48.14;102631.53;4975078;28;20026;-62
2022/01/19 04:30:44;;;;;;;9.75;5.13;;;;;;;10.68;48.25;102625.25;4958015;28;20089;-62
2022/01/19 04:33:23;;;;;;;7.88;5.03;;;;;;;10.72;48.09;102623.28;4975040;28;20026;-62
2022/01/19 04:35:54;;;;;;;12.65;5.60;;;;;;;10.74;48.32;102627.59;4959535;28;20096;-62
2022/01/19 04:44:32;;;;;;;10.75;4.95;;;;;;;10.70;48.19;102619.78;4969612;28;20090;-62
2022/01/19 04:47:31;;;;;;;11.40;5.65;;;;;;;10.76;48.60;102622.13;4961371;28;20065;-62
2022/01/19 05:06:04;;;;;;;12.35;5.68;;;;;;;10.93;47.90;102597.91;4946368;28;20031;-62
2022/01/19 05:13:39;;;;;;;10.02;5.45;;;;;;;11.02;48.50;102584.84;4974650;28;20456;-62
2022/01/19 05:16:05;;;;;;;9.30;5.43;;;;;;;10.99;48.19;102574.31;4974707;28;20026;-61
2022/01/19 05:18:31;;;;;;;10.63;6.30;;;;;;;11.05;47.88;102575.75;4974676;28;20034;-62
2022/01/19 05:20:57;;;;;;;9.02;5.32;;;;;;;11.09;48.76;102563.88;4957369;28;20227;-61
2022/01/19 05:23:22;;;;;;;10.68;5.38;;;;;;;11.08;48.75;102552.28;4957009;28;20536;-62
2022/01/19 05:25:48;;;;;;;10.43;5.43;;;;;;;11.16;48.42;102553.69;4974566;28;20027;-62
2022/01/19 05:28:14;;;;;;;10.48;5.80;;;;;;;11.17;47.45;102547.38;4974491;28;20034;-62
2022/01/19 05:30:39;;;;;;;10.73;5.53;;;;;;;11.22;48.14;102551.50;4957259;28;20081;-62
2022/01/19 05:33:05;;;;;;;14.38;6.38;;;;;;;11.25;47.92;102547.78;4976659;28;20428;-62
2022/01/19 05:35:30;;;;;;;11.23;5.78;;;;;;;11.27;48.54;102556.59;4977927;28;20105;-62
2022/01/19 05:37:56;;;;;;;11.15;6.95;;;;;;;11.31;48.09;102552.75;4960688;28;20396;-62
2022/01/19 05:40:21;;;;;;;9.52;5.63;;;;;;;11.33;47.71;102545.50;4960392;28;20058;-61
2022/01/19 05:42:49;;;;;;;11.32;5.40;;;;;;;11.34;48.54;102547.19;4977674;28;20110;-61
2022/01/19 05:45:14;;;;;;;13.32;5.63;;;;;;;11.36;48.14;102546.16;4977670;28;20146;-61
2022/01/19 05:47:39;;;;;;;10.90;6.78;;;;;;;11.38;48.54;102543.38;4977751;28;20054;-61
2022/01/19 05:50:06;;;;;;;11.65;5.45;;;;;;;11.41;48.08;102549.44;4960328;28;20223;-61
2022/01/19 05:52:32;;;;;;;13.98;5.82;;;;;;;11.45;47.79;102544.72;4977730;28;20601;-61
2022/01/19 05:54:57;;;;;;;11.57;6.45;;;;;;;11.48;47.90;102555.28;4960661;28;20023;-62
2022/01/19 05:57:22;;;;;;;10.55;5.80;;;;;;;11.50;48.27;102542.66;4977607;28;20481;-62
2022/01/19 05:59:48;;;;;;;12.65;6.20;;;;;;;11.48;48.57;102531.13;4977432;28;20477;-62
2022/01/19 06:02:13;;;;;;;10.63;6.05;;;;;;;11.49;47.88;102532.88;4977427;28;20105;-62
2022/01/19 06:04:39;;;;;;;13.43;6.72;;;;;;;11.58;47.89;102538.56;4977752;28;20027;-62
2022/01/19 06:07:04;;;;;;;12.73;6.70;;;;;;;11.61;47.80;102532.13;4960156;28;20488;-62
2022/01/19 06:09:48;;;;;;;15.40;5.85;;;;;;;11.60;47.56;102522.34;4977414;28;20397;-61
2022/01/19 06:12:14;;;;;;;12.63;5.70;;;;;;;11.65;47.80;102525.59;4977514;28;20049;-62
2022/01/19 06:14:42;;;;;;;9.93;6.15;;;;;;;11.67;48.32;102524.56;4959980;28;20110;-62
2022/01/19 06:17:10;;;;;;;12.02;6.55;;;;;;;11.71;47.42;102513.66;4977127;28;20110;-62
2022/01/19 06:19:37;;;;;;;10.05;6.15;;;;;;;11.70;48.25;102518.16;4977018;28;20034;-62
2022/01/19 06:22:02;;;;;;;13.77;6.10;;;;;;;11.70;48.06;102514.63;4977238;28;20507;-62
2022/01/19 06:24:28;;;;;;;14.43;6.35;;;;;;;11.72;48.21;102507.34;4959906;28;20035;-62
2022/01/19 06:26:54;;;;;;;12.50;6.07;;;;;;;11.69;48.26;102519.13;4977062;28;20472;-62
2022/01/19 06:29:20;;;;;;;11.30;5.60;;;;;;;11.65;48.01;102509.50;4976806;28;20033;-62
2022/01/19 06:31:45;;;;;;;13.23;6.82;;;;;;;11.67;47.63;102515.63;4977158;28;20026;-62
2022/01/19 06:34:10;;;;;;;14.02;6.72;;;;;;;11.71;47.68;102522.59;4977164;28;20023;-61
2022/01/19 06:36:36;;;;;;;13.02;5.75;;;;;;;11.73;47.68;102517.97;4977210;28;20034;-62
2022/01/19 06:39:02;;;;;;;11.63;5.68;;;;;;;11.75;48.22;102515.22;4977246;28;20022;-62
2022/01/19 06:41:27;;;;;;;11.27;5.97;;;;;;;11.44;48.37;102457.16;4943729;28;20022;-62
2022/01/19 06:43:53;;;;;;;10.32;5.32;;;;;;;11.77;48.07;102514.16;4959037;28;20091;-62
2022/01/19 06:46:18;;;;;;;13.07;6.45;;;;;;;11.79;47.72;102512.22;4976953;28;20054;-62
2022/01/19 06:48:43;;;;;;;14.30;6.47;;;;;;;11.79;47.53;102506.84;4976944;28;20480;-62
2022/01/19 06:51:09;;;;;;;12.27;6.18;;;;;;;11.81;47.56;102512.97;4959648;28;20109;-62
2022/01/19 06:53:34;;;;;;;10.73;5.40;;;;;;;11.83;47.86;102505.72;4959652;28;20026;-62
2022/01/19 06:56:00;;;;;;;9.88;5.80;;;;;;;11.84;47.52;102504.75;4976964;28;20460;-63
2022/01/19 06:58:26;;;;;;;9.77;5.57;;;;;;;11.89;47.94;102504.47;4976625;28;20034;-62
2022/01/19 07:00:52;;;;;;;9.93;6.28;;;;;;;11.90;48.04;102501.69;4976547;28;20162;-62
2022/01/19 07:03:18;;;;;;;14.23;6.22;;;;;;;11.91;47.07;102508.78;4959557;28;20109;-62
2022/01/19 07:05:44;;;;;;;13.07;5.85;;;;;;;11.94;47.30;102505.03;4943498;28;20031;-62
2022/01/19 07:08:09;;;;;;;14.75;6.57;;;;;;;11.96;47.51;102503.97;4976362;28;20117;-62
2022/01/19 07:10:34;;;;;;;12.32;5.70;;;;;;;11.99;47.57;102503.78;4976932;28;20023;-62
2022/01/19 07:13:01;;;;;;;10.25;5.68;;;;;;;12.01;47.40;102495.63;4976401;28;20390;-62
2022/01/19 07:15:27;;;;;;;13.93;6.53;;;;;;;12.01;47.18;102484.88;4943192;28;20050;-62
2022/01/19 07:17:53;;;;;;;13.20;6.20;;;;;;;12.00;47.46;102480.47;4976290;28;20485;-62
2022/01/19 07:20:18;;;;;;;10.05;5.13;;;;;;;12.03;47.22;102489.19;4958919;28;20388;-62
2022/01/19 07:22:43;;;;;;;12.27;5.90;;;;;;;11.99;47.79;102476.94;4976043;28;20030;-62
2022/01/19 07:25:09;;;;;;;13.73;5.88;;;;;;;12.05;46.87;102495.34;4976441;28;20051;-62
2022/01/19 07:27:35;;;;;;;12.02;6.13;;;;;;;12.07;47.07;102481.81;4976195;28;20070;-62
2022/01/19 07:30:01;;;;;;;14.07;6.32;;;;;;;12.04;47.93;102465.88;4958913;28;20065;-62
2022/01/19 07:32:33;;;;;;;10.95;5.70;;;;;;;12.02;47.48;102465.13;4976439;28;20027;-62
2022/01/19 07:34:59;;;;;;;14.40;6.10;;;;;;;12.07;47.55;102480.00;4960135;28;20057;-62
2022/01/19 07:37:24;;;;;;;10.85;4.65;;;;;;;12.05;46.83;102470.31;4975951;28;20058;-62
2022/01/19 07:39:50;;;;;;;9.10;5.57;;;;;;;12.03;47.32;102473.06;4975722;28;20089;-62
2022/01/19 07:42:15;;;;;;;12.07;6.55;;;;;;;12.02;47.85;102465.13;4976177;28;20030;-62
2022/01/19 07:44:41;;;;;;;10.77;5.63;;;;;;;11.97;47.20;102457.38;4958597;28;20033;-62
2022/01/19 07:47:06;;;;;;;12.63;5.60;;;;;;;12.00;46.91;102459.88;4975575;28;20425;-62
2022/01/19 07:49:32;;;;;;;17.75;6.00;;;;;;;11.99;46.97;102460.81;4975749;28;20073;-62
2022/01/19 07:51:57;;;;;;;10.02;5.28;;;;;;;11.98;46.90;102459.09;4958170;28;20484;-62
2022/01/19 07:54:23;;;;;;;14.15;6.93;;;;;;;11.95;47.51;102448.53;4975311;28;20536;-62
2022/01/19 07:56:48;;;;;;;15.95;7.07;;;;;;;12.01;47.29;102456.19;4975127;28;20034;-62
2022/01/19 07:59:14;;;;;;;13.00;6.95;;;;;;;12.01;47.02;102452.66;4958092;28;20105;-62
2022/01/19 08:01:40;;;;;;;12.45;6.85;;;;;;;11.92;47.01;102437.16;4975273;28;20065;-62
2022/01/19 08:04:05;;;;;;;12.55;6.40;;;;;;;12.04;47.25;102449.78;4974965;28;20061;-61
2022/01/19 08:06:30;;;;;;;11.85;6.00;;;;;;;12.05;47.18;102444.31;4957921;28;20394;-62
2022/01/19 08:08:56;;;;;;;13.85;6.68;;;;;;;12.04;47.18;102442.59;4958199;28;20028;-62
2022/01/19 08:11:21;;;;;;;14.45;6.05;;;;;;;12.08;47.42;102448.63;4957727;28;20033;-62
2022/01/19 08:13:47;;;;;;;13.52;6.95;;;;;;;12.09;47.07;102451.19;4974977;28;20061;-62
2022/01/19 08:16:12;;;;;;;15.68;7.72;;;;;;;12.08;46.76;102446.81;4975503;28;20046;-62
2022/01/19 08:18:37;;;;;;;13.82;6.60;;;;;;;12.11;47.67;102446.63;4974980;28;20031;-62
2022/01/19 08:21:03;;;;;;;19.58;7.82;;;;;;;12.12;46.79;102442.94;4957854;28;20080;-62
2022/01/19 08:23:28;;;;;;;14.35;6.85;;;;;;;12.07;47.15;102431.63;4975005;28;20384;-62
2022/01/19 08:25:54;;;;;;;13.80;6.50;;;;;;;12.14;47.29;102432.94;4957609;28;20477;-62
2022/01/19 08:28:20;;;;;;;12.30;6.65;;;;;;;12.11;47.03;102430.50;4957533;28;20022;-63
2022/01/19 08:30:46;;;;;;;10.70;6.45;;;;;;;12.15;47.07;102431.13;4974883;28;20025;-62
2022/01/19 08:33:12;;;;;;;12.30;6.38;;;;;;;12.15;47.41;102432.00;4974880;28;20030;-62
2022/01/19 08:35:38;;;;;;;12.15;6.40;;;;;;;12.12;47.35;102434.88;4974849;28;20031;-62
2022/01/19 08:38:03;;;;;;;10.25;5.78;;;;;;;12.13;46.91;102442.00;4957614;28;20030;-61
2022/01/19 08:40:30;;;;;;;13.63;6.13;;;;;;;12.11;47.21;102433.19;4974466;28;20051;-61
2022/01/19 08:42:56;;;;;;;13.25;6.65;;;;;;;12.10;47.41;102431.44;4974885;28;20026;-62
2022/01/19 08:45:22;;;;;;;13.38;6.25;;;;;;;12.12;47.55;102432.19;4974803;28;20023;-62
2022/01/19 08:47:48;;;;;;;12.27;6.97;;;;;;;12.08;47.41;102419.94;4957564;28;20045;-62
2022/01/19 08:50:15;;;;;;;9.63;5.47;;;;;;;12.16;46.74;102431.06;4974830;28;20481;-62
2022/01/19 08:52:41;;;;;;;11.27;6.28;;;;;;;12.18;47.74;102423.75;4957263;28;20056;-62
2022/01/19 08:55:07;;;;;;;13.57;6.10;;;;;;;12.15;47.07;102404.28;4974464;28;20053;-62
2022/01/19 08:57:32;;;;;;;11.88;6.10;;;;;;;12.20;47.43;102412.88;4974769;28;20034;-62
2022/01/19 08:59:58;;;;;;;16.55;7.20;;;;;;;12.20;47.60;102404.81;4974645;28;20481;-62
2022/01/19 09:02:23;;;;;;;11.52;6.88;;;;;;;12.21;47.30;102407.44;4957237;28;20500;-62
2022/01/19 09:04:49;;;;;;;10.93;5.72;;;;;;;12.18;47.56;102396.00;4974899;28;20027;-62
2022/01/19 09:07:14;;;;;;;13.35;7.07;;;;;;;12.21;47.58;102409.25;4975432;28;20527;-62
2022/01/19 09:09:40;;;;;;;11.80;6.70;;;;;;;12.25;47.62;102408.09;4961214;28;20035;-62
2022/01/19 09:12:05;;;;;;;14.70;6.32;;;;;;;12.28;47.52;102415.97;4978365;28;20396;-62
2022/01/19 09:14:31;;;;;;;11.60;6.75;;;;;;;12.30;47.81;102407.78;4978263;28;20051;-62
2022/01/19 09:16:57;;;;;;;13.60;6.82;;;;;;;12.29;47.53;102396.16;4978332;28;20030;-62
2022/01/19 09:19:23;;;;;;;9.18;5.60;;;;;;;12.32;47.10;102398.66;4978643;28;20049;-62
2022/01/19 09:21:49;;;;;;;14.40;7.03;;;;;;;12.32;47.13;102393.28;4961012;28;20031;-62
2022/01/19 09:24:15;;;;;;;11.73;6.10;;;;;;;12.30;47.28;102386.28;4960756;28;20034;-62
2022/01/19 09:26:40;;;;;;;11.18;6.32;;;;;;;12.35;47.21;102390.38;4978209;28;20027;-62
2022/01/19 09:29:06;;;;;;;13.07;6.45;;;;;;;12.38;47.17;102387.50;4978216;28;20030;-62
2022/01/19 09:31:33;;;;;;;14.18;6.55;;;;;;;12.36;46.56;102383.19;4960814;28;20037;-62
2022/01/19 09:34:09;;;;;;;15.90;5.93;;;;;;;12.39;47.09;102373.09;4978444;28;20077;-62
2022/01/19 09:36:44;;;;;;;15.38;6.50;;;;;;;12.40;46.80;102373.94;4978329;28;20086;-62
2022/01/19 09:39:11;;;;;;;19.50;6.53;;;;;;;12.39;47.73;102385.69;4977999;28;20073;-62
2022/01/19 09:41:36;;;;;;;11.98;6.55;;;;;;;12.39;46.69;102383.00;4978098;28;20023;-62
2022/01/19 09:44:02;;;;;;;12.75;6.07;;;;;;;12.37;46.88;102374.19;4977976;28;20045;-62
2022/01/19 09:46:29;;;;;;;13.18;6.60;;;;;;;12.37;47.09;102375.00;4977775;28;20034;-62
2022/01/19 09:48:55;;;;;;;12.70;6.80;;;;;;;12.37;47.40;102384.94;4977688;28;20029;-62
2022/01/19 09:51:20;;;;;;;12.73;6.57;;;;;;;12.38;47.15;102370.50;4977955;28;20026;-62
2022/01/19 09:53:47;;;;;;;9.35;6.40;;;;;;;12.37;47.43;102368.81;4960378;28;20046;-62
2022/01/19 09:56:14;;;;;;;13.15;6.55;;;;;;;12.35;47.45;102359.97;4960803;28;20027;-62
2022/01/19 09:58:40;;;;;;;14.35;7.30;;;;;;;12.31;47.17;102359.28;4960369;28;20381;-62
2022/01/19 10:01:05;;;;;;;14.75;6.95;;;;;;;12.35;46.68;102354.59;4977601;28;20033;-62
2022/01/19 10:03:32;;;;;;;14.77;6.30;;;;;;;12.34;47.59;102347.50;4977846;28;20102;-62
2022/01/19 10:06:09;;;;;;;11.43;6.65;;;;;;;12.38;47.49;102347.19;4977448;28;20058;-62
2022/01/19 10:08:39;;;;;;;14.07;6.82;;;;;;;12.42;47.50;102346.03;4960519;28;20054;-62
2022/01/19 10:11:18;;;;;;;13.73;6.55;;;;;;;12.46;46.58;102336.78;4960128;28;20039;-62
2022/01/19 10:19:21;;;;;;;10.35;6.28;;;;;;;12.53;47.24;102327.34;4977200;28;20042;-62
2022/01/19 10:22:05;;;;;;;15.88;6.90;;;;;;;12.56;47.30;102331.66;4977193;28;20113;-62
2022/01/19 10:24:56;;;;;;;14.80;6.93;;;;;;;12.57;46.41;102322.59;4977242;28;20019;-62
2022/01/19 10:27:33;;;;;;;14.38;7.00;;;;;;;12.61;47.75;102324.13;4956632;28;20062;-62
2022/01/19 10:30:04;;;;;;;15.43;7.25;;;;;;;12.62;47.52;102320.44;4977337;28;20026;-62
2022/01/19 10:32:49;;;;;;;14.95;7.43;;;;;;;12.65;47.23;102320.25;4977026;28;20022;-62
2022/01/19 10:35:17;;;;;;;15.68;6.97;;;;;;;12.68;46.71;102312.84;4977241;28;20038;-62
2022/01/19 10:37:44;;;;;;;13.90;7.50;;;;;;;12.69;47.69;102311.88;4976939;28;20481;-62
2022/01/19 10:40:17;;;;;;;11.88;6.20;;;;;;;12.70;46.91;102296.63;4976432;28;20128;-62
2022/01/19 10:42:42;;;;;;;13.05;6.15;;;;;;;12.69;47.07;102294.88;4976727;28;20034;-62
2022/01/19 10:45:09;;;;;;;14.50;7.32;;;;;;;12.71;47.29;102290.25;4976818;28;20608;-62
2022/01/19 10:47:39;;;;;;;19.15;7.13;;;;;;;12.69;46.96;102278.75;4959545;28;20392;-62
2022/01/19 10:50:06;;;;;;;12.60;6.97;;;;;;;12.74;46.78;102285.53;4976720;28;20041;-62
2022/01/19 10:52:32;;;;;;;16.38;7.40;;;;;;;12.77;46.73;102289.81;4959803;28;20038;-62
2022/01/19 10:54:59;;;;;;;13.43;7.20;;;;;;;12.77;46.46;102273.69;4959339;28;20405;-62
2022/01/19 10:57:26;;;;;;;15.05;7.90;;;;;;;12.77;46.91;102281.75;4976577;28;20037;-62
2022/01/19 10:59:53;;;;;;;12.27;6.32;;;;;;;12.78;47.64;102278.13;4959323;28;20031;-62
2022/01/19 11:02:19;;;;;;;14.60;6.78;;;;;;;12.76;46.25;102270.13;4943411;28;20026;-62
2022/01/19 11:04:45;;;;;;;13.65;6.82;;;;;;;12.77;47.15;102265.63;4959167;28;20496;-62
2022/01/19 11:07:18;;;;;;;12.02;6.95;;;;;;;12.79;46.91;102269.94;4976451;28;20030;-62
2022/01/19 11:09:56;;;;;;;;;;;;;;;12.79;47.38;102252.94;4976887;28;20031;-62
2022/01/19 11:12:24;;;;;;;11.40;5.88;;;;;;;12.78;47.03;102240.47;4976282;28;19910;-62
2022/01/19 11:14:50;;;;;;;10.45;6.30;;;;;;;12.76;46.78;102237.00;4976490;28;20038;-62
2022/01/19 11:17:15;;;;;;;12.80;6.25;;;;;;;12.77;46.61;102242.28;4976160;28;20069;-62
2022/01/19 11:19:43;;;;;;;15.68;7.50;;;;;;;12.78;46.20;102235.09;4958760;28;20027;-62
2022/01/19 11:22:46;;;;;;;12.68;6.80;;;;;;;12.76;46.52;102239.69;4959152;28;20031;-62
2022/01/19 11:25:50;;;;;;;14.25;6.88;;;;;;;12.73;47.41;102237.25;4976071;28;20489;-62
2022/01/19 11:28:28;;;;;;;12.38;5.80;;;;;;;12.68;47.64;102231.31;4963370;28;20118;-62
2022/01/19 11:30:54;;;;;;;12.15;6.22;;;;;;;12.66;46.91;102223.38;4975423;28;20030;-62
2022/01/19 11:33:26;;;;;;;15.27;7.25;;;;;;;12.72;47.12;102230.16;4975822;28;20023;-62
2022/01/19 11:35:54;;;;;;;13.38;7.20;;;;;;;12.75;46.62;102221.88;4976063;28;20030;-62
2022/01/19 11:38:38;;;;;;;18.20;7.05;;;;;;;12.78;46.09;102202.81;4975884;28;20113;-63
2022/01/19 11:41:42;;;;;;;12.75;6.63;;;;;;;12.85;47.34;102204.09;4975621;28;20531;-62
2022/01/19 11:44:20;;;;;;;12.85;6.97;;;;;;;12.87;46.92;102212.06;4975583;28;20105;-62
2022/01/19 11:46:48;;;;;;;14.65;7.18;;;;;;;12.90;46.33;102201.94;4975954;28;20488;-62
2022/01/19 11:49:38;;;;;;;16.48;7.15;;;;;;;12.96;47.13;102193.41;4975785;28;20033;-62
2022/01/19 11:52:04;;;;;;;13.70;7.25;;;;;;;13.01;47.21;102190.41;4975562;28;20035;-62
2022/01/19 11:54:33;;;;;;;22.80;8.68;;;;;;;13.02;46.42;102190.28;4975923;28;20064;-62
2022/01/19 11:56:58;;;;;;;12.88;6.80;;;;;;;13.04;46.57;102180.28;4958500;28;20392;-62
2022/01/19 11:59:25;;;;;;;13.23;6.90;;;;;;;13.04;47.13;102182.97;4975849;28;20031;-62
2022/01/19 12:01:51;;;;;;;13.38;6.80;;;;;;;13.05;47.07;102173.94;4975340;28;20023;-62
2022/01/19 12:04:19;;;;;;;14.10;6.85;;;;;;;13.06;46.25;102175.66;4975294;28;20038;-62
2022/01/19 12:06:47;;;;;;;15.07;7.25;;;;;;;13.04;46.54;102166.81;4975311;28;20037;-62
2022/01/19 12:09:13;;;;;;;15.35;7.10;;;;;;;12.99;46.97;102152.00;4958178;28;20022;-62
2022/01/19 12:11:49;;;;;;;16.67;7.45;;;;;;;12.99;47.65;102152.84;4975362;28;20050;-62
2022/01/19 12:14:29;;;;;;;17.00;6.97;;;;;;;12.99;46.95;102147.47;4975556;28;20030;-62
2022/01/19 12:17:16;;;;;;;14.73;7.35;;;;;;;12.98;46.51;102150.28;4943812;28;20162;-63
2022/01/19 12:19:44;;;;;;;13.75;7.43;;;;;;;12.95;46.50;102146.00;4975135;28;20038;-62
2022/01/19 12:22:21;;;;;;;13.25;7.13;;;;;;;12.96;46.99;102131.56;4975273;28;20031;-62
2022/01/19 12:24:58;;;;;;;16.67;6.10;;;;;;;12.95;46.89;102129.88;4974884;28;20038;-62
2022/01/19 12:27:25;;;;;;;11.98;6.65;;;;;;;12.94;46.68;102121.91;4975104;28;20412;-62
2022/01/19 12:29:51;;;;;;;18.88;7.18;;;;;;;12.91;46.19;102122.97;4975077;28;20083;-62
2022/01/19 12:32:17;;;;;;;13.30;7.13;;;;;;;12.92;46.86;102124.72;4974913;28;20026;-62
2022/01/19 12:34:56;;;;;;;15.23;6.82;;;;;;;12.91;46.85;102120.28;4975211;28;20031;-62
2022/01/19 12:37:24;;;;;;;12.57;6.57;;;;;;;12.97;46.66;102116.28;4974947;28;20026;-62